Montacute, United Kingdom
Current Conditions -  °F | °C
As of 4:50 AM on Wednesday 26 Nov 2014 (Local Time) from EGDY Reporting Station
Light Rain Light Rain  
Wind Chill: 41°   Ceiling: 600
Heat Index: 45°   Visibility: 1.8mi
Dew Point: 43°   Wind: 6mph
Humidity: 93%   Direction: 340°NNW
Pressure: 29.91"   Gusts: NA
Location:  50.95°N, 2.72°W
Report Text: EGDY 260450Z 34005KT 3000 -RADZ OVC006 07/06 Q1013 YLO1
Loading
Personal Weather Stations






























Interactive Weather Map New forecast layout! Learn more

10-Day Weather Forecast

Advertisements
Track Severe Weather on mobile